ADDS METAR Data INFO
IDs: Format: Raw Decoded Include TAF

Data at: 2115 UTC 19 Jul 2018

KMYJ 192055Z AUTO 18010G14KT 7SM CLR 28/23 A2985 RMK AO2
KMYJ 192035Z AUTO 19011KT 7SM CLR 28/23 A2984 RMK AO2 LTG DSNT SW AND W
KMYJ 192015Z AUTO 17011KT 7SM CLR 28/23 A2984 RMK AO2
KMYJ 191955Z AUTO 18007KT 7SM CLR 27/23 A2985 RMK AO2
KMYJ 191935Z AUTO 18008KT 142V202 7SM CLR 27/22 A2986 RMK AO2 LTG DSNT W
KMYJ 191915Z AUTO 19009G16KT 7SM CLR 26/22 A2986 RMK AO2 LTG DSNT NE
KMYJ 191855Z AUTO 19009KT 7SM CLR 25/22 A2987 RMK AO2 LTG DSNT S AND W
KMYJ 191835Z AUTO 21011G14KT 7SM CLR 25/22 A2989 RMK AO2 LTG DSNT NE AND S
KMYJ 191815Z AUTO 20009KT 7SM CLR 25/22 A2989 RMK AO2 LTG DSNT SE
KMYJ 191755Z AUTO 17011G14KT 152V212 7SM CLR 25/22 A2988 RMK AO2
KMYJ 191735Z AUTO 16011G16KT 7SM CLR 25/22 A2989 RMK AO2 LTG DSNT S
KMYJ 191715Z AUTO 17006KT 10SM CLR 23/22 A2990 RMK AO2
KMYJ 191655Z AUTO 16008KT 7SM -RA SCT034 SCT042 SCT048 21/21 A2990 RMK AO2 P0007 LTG DSNT ALQS
KMYJ 191635Z AUTO 17006KT 4SM -VCTSRA SCT018 BKN040 OVC050 21/21 A2992 RMK AO2 P0006 LTG DSNT NE THRU SW
KMYJ 191615Z AUTO 00000KT 2 1/2SM -TSRA SCT021 BKN046 OVC075 21/21 A2994 RMK AO2 P0004 LTG DSNT ALQS
KMYJ 191555Z AUTO 00000KT 2 1/2SM TSRA SCT029 BKN042 OVC075 21/21 A2994 RMK AO2 P0010 LTG DSNT ALQS
KMYJ 191535Z AUTO 15003KT 2 1/2SM -TSRA SCT025 BKN035 OVC050 21/21 A2993 RMK AO2 P0006 LTG DSNT SW THRU N
KMYJ 191515Z AUTO 14004KT 2 1/2SM TSRA SCT036 SCT044 BKN050 22/20 A2992 RMK AO2 VIS 1 1/2V5 P0001 LTG DSNT ALQS
KMYJ 191455Z AUTO 15005KT 7SM VCTS SCT044 SCT120 23/20 A2992 RMK AO2 LTG DSNT SW THRU NW
KMYJ 191435Z AUTO 16006KT 7SM CLR 23/19 A2991 RMK AO2 LTG DSNT NW
KMYJ 191415Z AUTO 16008G14KT 10SM SCT120 23/19 A2991 RMK AO2
KMYJ 191355Z AUTO 16010KT 7SM SCT049 BKN120 23/19 A2991 RMK AO2 LTG DSNT N
KMYJ 191335Z AUTO 16009KT 7SM SCT049 BKN120 23/18 A2991 RMK AO2 LTG DSNT NW
KMYJ 191315Z AUTO 15010KT 7SM BKN047 BKN120 22/18 A2991 RMK AO2 LTG DSNT NE
KMYJ 191255Z AUTO 14007KT 10SM SCT039 OVC045 22/18 A2992 RMK AO2 LTG DSNT NE
KMYJ 191235Z AUTO 14005KT 7SM SCT034 BKN040 OVC047 22/18 A2993 RMK AO2 LTG DSNT NE AND SE
KMYJ 191215Z AUTO 13006KT 7SM BKN036 OVC042 21/18 A2994 RMK AO2 LTG DSNT NE AND E
KMYJ 191155Z AUTO 12004KT 7SM SCT034 BKN040 OVC055 21/18 A2994 RMK AO2 LTG DSNT N
KMYJ 191135Z AUTO 11003KT 7SM SCT038 SCT046 OVC055 20/19 A2994 RMK AO2 LTG DSNT NE
KMYJ 191115Z AUTO 11003KT 10SM SCT038 OVC046 20/19 A2994 RMK AO2 LTG DSNT NW
KMYJ 191055Z AUTO 11003KT 10SM OVC041 20/19 A2994 RMK AO2 LTG DSNT N AND NE
KMYJ 191035Z AUTO 00000KT 10SM BKN041 OVC060 20/19 A2994 RMK AO2
KMYJ 191015Z AUTO 00000KT 7SM SCT041 BKN060 OVC100 20/18 A2994 RMK AO2 LTG DSNT NE
KMYJ 190955Z AUTO 00000KT 10SM SCT046 BKN100 20/18 A2994 RMK AO2 LTG DSNT NE
KMYJ 190935Z AUTO 13003KT 7SM BKN044 BKN110 20/18 A2994 RMK AO2
KMYJ 190915Z AUTO 13003KT 10SM SCT040 20/18 A2994 RMK AO2 LTG DSNT N
KMYJ 190855Z AUTO 13003KT 7SM BKN040 BKN046 21/18 A2994 RMK AO2
KMYJ 190835Z AUTO 12003KT 10SM BKN042 21/18 A2995 RMK AO2
KMYJ 190815Z AUTO 13004KT 10SM SCT110 21/18 A2995 RMK AO2
KMYJ 190755Z AUTO 12006KT 10SM SCT120 21/18 A2995 RMK AO2
KMYJ 190735Z AUTO 12005KT 10SM SCT045 BKN120 21/18 A2996 RMK AO2
KMYJ 190715Z AUTO 12004KT 10SM BKN045 BKN050 OVC110 21/18 A2996 RMK AO2 LTG DSNT N
KMYJ 190655Z AUTO 11004KT 7SM SCT045 OVC050 21/18 A2997 RMK AO2
KMYJ 190635Z AUTO 11004KT 10SM BKN050 OVC110 22/18 A2998 RMK AO2
KMYJ 190615Z AUTO 10005KT 10SM OVC050 22/18 A2998 RMK AO2
KMYJ 190555Z AUTO 00000KT 7SM OVC050 22/18 A2999 RMK AO2
KMYJ 190535Z AUTO 10004KT 7SM BKN050 BKN060 BKN110 22/18 A2999 RMK AO2
KMYJ 190515Z AUTO 10004KT 7SM BKN055 BKN110 22/18 A2998 RMK AO2
KMYJ 190455Z AUTO 10003KT 7SM SCT060 BKN100 22/18 A2999 RMK AO2
KMYJ 190435Z AUTO 11003KT 7SM SCT070 OVC100 22/18 A2999 RMK AO2
KMYJ 190415Z AUTO 10004KT 7SM BKN070 OVC090 22/18 A2998 RMK AO2
KMYJ 190355Z AUTO 10003KT 7SM SCT070 BKN085 BKN120 22/18 A2999 RMK AO2
KMYJ 190335Z AUTO 10003KT 7SM SCT085 SCT120 22/18 A2999 RMK AO2
KMYJ 190315Z AUTO 10005KT 7SM SCT085 22/18 A2998 RMK AO2
KMYJ 190255Z AUTO 10005KT 7SM OVC085 23/18 A2998 RMK AO2
KMYJ 190235Z AUTO 11003KT 7SM BKN085 23/18 A2998 RMK AO2
KMYJ 190215Z AUTO 09004KT 7SM CLR 23/18 A2997 RMK AO2
KMYJ 190155Z AUTO 10005KT 5SM HZ CLR 23/18 A2996 RMK AO2
KMYJ 190135Z AUTO 11005KT 7SM CLR 25/18 A2996 RMK AO2 LTG DSNT S
KMYJ 190115Z AUTO 11006KT 4SM HZ CLR 25/18 A2996 RMK AO2
KMYJ 190055Z AUTO 11006KT 4SM HZ SCT055 26/18 A2996 RMK AO2 LTG DSNT S
KMYJ 190035Z AUTO 12005KT 5SM HZ BKN055 BKN070 BKN090 26/18 A2996 RMK AO2
KMYJ 190015Z AUTO 12006KT 5SM HZ BKN055 OVC070 27/18 A2996 RMK AO2
KMYJ 182355Z AUTO 11007KT 4SM HZ OVC055 27/18 A2996 RMK AO2
KMYJ 182335Z AUTO 14005KT 4SM HZ BKN065 28/18 A2996 RMK AO2
KMYJ 182315Z AUTO 14006KT 5SM HZ BKN070 BKN075 29/17 A2996 RMK AO2
KMYJ 182255Z AUTO 13006KT 4SM HZ BKN070 29/17 A2996 RMK AO2
KMYJ 182235Z AUTO 13004KT 4SM HZ SCT060 SCT070 29/18 A2996 RMK AO2
KMYJ 182215Z AUTO 14006KT 4SM HZ BKN050 BKN070 29/19 A2996 RMK AO2
KMYJ 182155Z AUTO 18004KT 4SM HZ BKN050 BKN060 BKN070 30/18 A2997 RMK AO2
KMYJ 182135Z AUTO 16004KT 4SM HZ CLR 30/18 A2997 RMK AO2
KMYJ 182115Z AUTO 15004KT 5SM HZ SCT048 SCT060 30/19 A2997 RMK AO2
KMYJ 182055Z AUTO 12006KT 3SM HZ SCT048 BKN050 28/18 A2998 RMK AO2
KMYJ 182035Z AUTO 13004KT 5SM HZ BKN050 29/18 A2999 RMK AO2
KMYJ 182015Z AUTO 12006KT 4SM HZ BKN050 28/18 A3001 RMK AO2
KMYJ 181955Z AUTO 14005KT 4SM HZ SCT050 SCT065 28/18 A3001 RMK AO2
KMYJ 181935Z AUTO 13005KT 4SM HZ SCT050 BKN060 28/18 A3002 RMK AO2
KMYJ 181915Z AUTO 14007KT 4SM HZ SCT050 SCT060 29/19 A3003 RMK AO2
KMYJ 181855Z AUTO 14007KT 5SM HZ SCT048 SCT060 30/19 A3003 RMK AO2
KMYJ 181835Z AUTO 15008KT 5SM HZ SCT048 29/18 A3004 RMK AO2
KMYJ 181815Z AUTO 15004KT 7SM SCT048 28/18 A3005 RMK AO2
KMYJ 181755Z AUTO 13005KT 5SM HZ SCT046 SCT050 SCT070 28/18 A3006 RMK AO2
KMYJ 181735Z AUTO 14006KT 10SM SCT043 SCT070 29/19 A3006 RMK AO2
KMYJ 181715Z AUTO 11006KT 7SM CLR 28/19 A3006 RMK AO2
KMYJ 181655Z AUTO 14006KT 7SM CLR 28/18 A3006 RMK AO2
KMYJ 181635Z AUTO 13007KT 082V172 7SM SCT065 BKN085 28/19 A3006 RMK AO2
KMYJ 181615Z AUTO 13006KT 7SM SCT065 27/18 A3007 RMK AO2
KMYJ 181555Z AUTO 13009KT 7SM CLR 27/18 A3007 RMK AO2
KMYJ 181535Z AUTO 10007KT 7SM CLR 27/18 A3007 RMK AO2
KMYJ 181515Z AUTO 12007KT 10SM SCT075 26/18 A3007 RMK AO2
KMYJ 181455Z AUTO 11006KT 7SM BKN075 25/18 A3007 RMK AO2
KMYJ 181435Z AUTO 12006KT 7SM SCT075 25/18 A3007 RMK AO2
KMYJ 181415Z AUTO 11005KT 7SM CLR 25/19 A3008 RMK AO2
KMYJ 181355Z AUTO 11006KT 7SM CLR 24/19 A3008 RMK AO2
KMYJ 181335Z AUTO 12004KT 7SM CLR 23/19 A3008 RMK AO2 LTG DSNT S
KMYJ 181315Z AUTO 10004KT 10SM CLR 22/19 A3008 RMK AO2
KMYJ 181255Z AUTO 10004KT 7SM CLR 21/18 A3008 RMK AO2
KMYJ 181235Z AUTO 09003KT 7SM CLR 20/18 A3008 RMK AO2
KMYJ 181215Z AUTO 09004KT 7SM CLR 19/18 A3007 RMK AO2
KMYJ 181155Z AUTO 00000KT 7SM CLR 18/17 A3007 RMK AO2
KMYJ 181135Z AUTO 00000KT 7SM CLR 18/17 A3007 RMK AO2
KMYJ 181115Z AUTO 09003KT 7SM CLR 18/17 A3006 RMK AO2 LTG DSNT SW
KMYJ 181055Z AUTO 06003KT 7SM CLR 18/17 A3006 RMK AO2
KMYJ 181035Z AUTO 08003KT 7SM CLR 18/17 A3006 RMK AO2
KMYJ 181015Z AUTO 00000KT 10SM CLR 17/17 A3006 RMK AO2
KMYJ 180955Z AUTO 13003KT 10SM CLR 17/17 A3006 RMK AO2
KMYJ 180935Z AUTO 10003KT 10SM CLR 18/17 A3006 RMK AO2